createdAt,value
2023-02-11T00:01:01.037Z,61.6
2023-02-11T00:06:01.147Z,61.3
2023-02-11T00:11:01.051Z,61.5
2023-02-11T00:16:05.716Z,60.6
2023-02-11T00:21:01.108Z,58.2
2023-02-11T00:26:01.037Z,57.0
2023-02-11T00:31:01.143Z,56.6
2023-02-11T00:36:01.019Z,55.0
2023-02-11T00:41:01.024Z,51.1
2023-02-11T00:46:01.058Z,52.2
2023-02-11T00:51:01.065Z,53.6
2023-02-11T00:56:01.212Z,54.1
2023-02-11T01:01:02.083Z,54.6
2023-02-11T01:06:01.025Z,58.4
2023-02-11T01:11:01.057Z,58.3
2023-02-11T01:16:02.573Z,57.5
2023-02-11T01:21:01.082Z,57.9
2023-02-11T01:26:01.661Z,57.7
2023-02-11T01:31:01.096Z,59.6
2023-02-11T01:36:01.114Z,60.0
2023-02-11T01:41:03.442Z,60.4
2023-02-11T01:46:09.658Z,60.6
2023-02-11T01:56:01.039Z,60.2
2023-02-11T02:01:01.036Z,58.4
2023-02-11T02:06:01.178Z,57.4
2023-02-11T02:11:01.029Z,55.6
2023-02-11T02:16:01.107Z,56.4
2023-02-11T02:21:01.117Z,56.0
2023-02-11T02:26:01.052Z,56.9
2023-02-11T02:31:01.218Z,57.0
2023-02-11T02:36:01.026Z,57.1
2023-02-11T02:41:01.129Z,56.8
2023-02-11T02:46:01.051Z,56.1
2023-02-11T02:51:01.047Z,55.0
2023-02-11T03:01:01.140Z,55.2
2023-02-11T03:06:01.066Z,55.5
2023-02-11T03:11:01.033Z,56.2
2023-02-11T03:16:01.067Z,56.4
2023-02-11T03:21:01.173Z,55.0
2023-02-11T03:31:01.126Z,52.8
2023-02-11T03:36:01.060Z,53.3
2023-02-11T03:41:01.045Z,53.8
2023-02-11T03:46:01.147Z,56.6
2023-02-11T03:51:01.121Z,57.1
2023-02-11T03:56:01.046Z,57.3
2023-02-11T04:01:01.080Z,56.4
2023-02-11T04:06:01.128Z,56.2
2023-02-11T04:11:01.070Z,55.9
2023-02-11T04:16:01.125Z,54.4
2023-02-11T04:21:02.199Z,55.4
2023-02-11T04:26:01.077Z,55.0
2023-02-11T04:31:01.145Z,54.8
2023-02-11T04:36:01.128Z,53.8
2023-02-11T04:41:01.045Z,56.0
2023-02-11T04:46:01.100Z,56.1
2023-02-11T04:51:01.522Z,56.4
2023-02-11T04:56:01.144Z,57.1
2023-02-11T05:01:01.102Z,57.2
2023-02-11T05:06:01.064Z,57.5
2023-02-11T05:11:01.076Z,57.0
2023-02-11T05:16:01.100Z,57.5
2023-02-11T05:21:01.061Z,57.8
2023-02-11T05:26:01.053Z,58.2
2023-02-11T05:31:01.205Z,57.3
2023-02-11T05:36:01.071Z,57.2
2023-02-11T05:41:01.056Z,56.6
2023-02-11T05:46:01.059Z,57.1
2023-02-11T05:51:01.612Z,55.6
2023-02-11T06:01:01.047Z,55.5
2023-02-11T06:06:01.057Z,56.4
2023-02-11T06:11:01.106Z,56.2
2023-02-11T06:16:01.092Z,57.4
2023-02-11T06:21:01.117Z,58.0
2023-02-11T06:26:01.059Z,59.3
2023-02-11T06:31:01.150Z,59.8
2023-02-11T06:36:01.134Z,59.4
2023-02-11T06:41:01.076Z,60.1
2023-02-11T06:46:01.060Z,55.8
2023-02-11T06:51:02.831Z,57.2
2023-02-11T06:56:01.046Z,55.8
2023-02-11T07:01:01.046Z,56.3
2023-02-11T07:06:02.535Z,55.6
2023-02-11T07:11:01.142Z,59.4
2023-02-11T07:16:01.088Z,57.5
2023-02-11T07:21:01.056Z,58.8
2023-02-11T07:26:01.068Z,58.5
2023-02-11T07:31:01.277Z,58.9
2023-02-11T07:36:01.063Z,59.8
2023-02-11T07:41:01.051Z,59.9
2023-02-11T07:46:01.101Z,60.4
2023-02-11T07:51:01.701Z,60.2
2023-02-11T07:56:01.055Z,60.1
2023-02-11T08:01:01.100Z,59.0
2023-02-11T08:06:01.068Z,58.5
2023-02-11T08:11:01.124Z,56.8
2023-02-11T08:16:01.151Z,56.5
2023-02-11T08:21:01.084Z,55.5
2023-02-11T08:26:01.051Z,54.8
2023-02-11T08:31:01.130Z,54.6
2023-02-11T08:36:01.065Z,55.4
2023-02-11T08:41:01.094Z,54.2
2023-02-11T08:46:02.238Z,54.8
2023-02-11T08:51:01.574Z,55.6
2023-02-11T08:56:01.057Z,56.2
2023-02-11T09:01:01.102Z,56.0
2023-02-11T09:06:01.143Z,57.9
2023-02-11T09:11:01.163Z,58.5
2023-02-11T09:16:01.049Z,58.8
2023-02-11T09:21:01.064Z,59.1
2023-02-11T09:26:01.108Z,56.9
2023-02-11T09:31:01.154Z,56.1
2023-02-11T09:36:01.545Z,55.2
2023-02-11T09:41:01.054Z,55.3
2023-02-11T09:46:01.154Z,55.2
2023-02-11T09:51:01.134Z,56.9
2023-02-11T09:56:01.054Z,57.6
2023-02-11T10:01:18.295Z,58.4
2023-02-11T10:06:01.080Z,58.5
2023-02-11T10:11:29.790Z,56.3
2023-02-11T10:16:01.156Z,56.0
2023-02-11T10:21:01.161Z,55.4
2023-02-11T10:26:01.065Z,54.2
2023-02-11T10:31:01.249Z,52.6
2023-02-11T10:36:01.101Z,54.0
2023-02-11T10:41:01.073Z,54.2
2023-02-11T10:51:01.180Z,53.8
2023-02-11T10:56:01.066Z,54.6
2023-02-11T11:01:01.067Z,54.4
2023-02-11T11:06:01.137Z,54.7
2023-02-11T11:11:01.216Z,55.3
2023-02-11T11:16:01.081Z,55.6
2023-02-11T11:21:01.114Z,54.0
2023-02-11T11:26:04.839Z,54.8
2023-02-11T11:31:01.251Z,54.1
2023-02-11T11:36:01.184Z,54.6
2023-02-11T11:41:01.069Z,55.3
2023-02-11T11:46:01.070Z,57.7
2023-02-11T11:51:01.065Z,57.9
2023-02-11T11:56:01.065Z,58.2
2023-02-11T12:01:01.055Z,56.9
2023-02-11T12:06:01.101Z,56.3
2023-02-11T12:11:01.056Z,55.9
2023-02-11T12:16:01.064Z,55.6
2023-02-11T12:21:01.624Z,55.0
2023-02-11T12:26:01.076Z,48.4
2023-02-11T12:31:01.103Z,47.7
2023-02-11T12:36:01.083Z,47.1
2023-02-11T12:41:01.062Z,46.6
2023-02-11T12:46:01.151Z,47.3
2023-02-11T12:51:01.089Z,53.9
2023-02-11T12:56:01.099Z,55.1
2023-02-11T13:01:01.087Z,53.8
2023-02-11T13:06:01.134Z,52.4
2023-02-11T13:16:01.082Z,51.7
2023-02-11T13:21:01.104Z,51.4
2023-02-11T13:26:01.174Z,52.6
2023-02-11T13:31:01.174Z,53.0
2023-02-11T13:36:03.384Z,53.2
2023-02-11T13:41:01.051Z,53.6
2023-02-11T13:46:01.170Z,52.8
2023-02-11T13:51:01.092Z,52.6
2023-02-11T13:56:01.085Z,54.0
2023-02-11T14:01:01.118Z,52.6
2023-02-11T14:06:01.574Z,52.4
2023-02-11T14:11:01.048Z,51.4
2023-02-11T14:16:01.048Z,50.2
2023-02-11T14:21:03.454Z,48.7
2023-02-11T14:26:01.080Z,48.0
2023-02-11T14:31:01.276Z,47.5
2023-02-11T14:36:01.124Z,48.2
2023-02-11T14:41:01.064Z,48.4
2023-02-11T14:46:01.116Z,48.2
2023-02-11T14:51:01.078Z,48.5
2023-02-11T14:56:01.096Z,50.0
2023-02-11T15:01:01.068Z,51.2
2023-02-11T15:06:01.988Z,52.0
2023-02-11T15:11:01.101Z,52.6
2023-02-11T15:21:01.080Z,51.6
2023-02-11T15:26:01.088Z,50.5
2023-02-11T15:31:01.246Z,49.3
2023-02-11T15:41:02.695Z,49.6
2023-02-11T15:46:01.178Z,49.4
2023-02-11T15:51:01.088Z,48.3
2023-02-11T15:56:01.071Z,47.7
2023-02-11T16:01:01.069Z,47.6
2023-02-11T16:06:01.188Z,48.1
2023-02-11T16:11:01.068Z,47.9
2023-02-11T16:16:01.150Z,49.3
2023-02-11T16:21:01.081Z,49.8
2023-02-11T16:26:01.091Z,49.6
2023-02-11T16:31:02.610Z,48.8
2023-02-11T16:36:01.183Z,47.6
2023-02-11T16:41:01.069Z,47.5
2023-02-11T16:46:01.090Z,48.2
2023-02-11T16:51:01.107Z,47.9
2023-02-11T16:56:01.065Z,48.1
2023-02-11T17:01:01.098Z,49.7
2023-02-11T17:06:01.460Z,50.1
2023-02-11T17:11:01.095Z,50.2
2023-02-11T17:16:01.187Z,50.1
2023-02-11T17:21:01.073Z,51.1
2023-02-11T17:26:01.092Z,49.5
2023-02-11T17:31:01.143Z,47.9
2023-02-11T17:36:01.080Z,48.6
2023-02-11T17:41:01.066Z,49.0
2023-02-11T17:51:01.577Z,49.3
2023-02-11T17:56:01.056Z,51.0
2023-02-11T18:01:01.240Z,50.0
2023-02-11T18:06:01.067Z,50.6
2023-02-11T18:11:01.078Z,49.3
2023-02-11T18:16:02.240Z,51.7
2023-02-11T18:21:01.062Z,51.6
2023-02-11T18:26:01.050Z,53.4
2023-02-11T18:36:01.194Z,54.6
2023-02-11T18:41:01.050Z,54.8
2023-02-11T18:46:01.168Z,55.3
2023-02-11T18:51:01.617Z,56.1
2023-02-11T18:56:01.084Z,57.1
2023-02-11T19:01:01.080Z,57.0
2023-02-11T19:06:01.071Z,58.9
2023-02-11T19:11:01.135Z,59.3
2023-02-11T19:16:01.078Z,59.7
2023-02-11T19:21:01.110Z,59.8
2023-02-11T19:26:01.073Z,59.7
2023-02-11T19:31:01.137Z,57.7
2023-02-11T19:36:01.094Z,57.5
2023-02-11T19:41:01.059Z,54.2
2023-02-11T19:46:01.089Z,52.5
2023-02-11T19:51:01.158Z,51.8
2023-02-11T19:56:03.339Z,50.7
2023-02-11T20:01:01.089Z,48.7
2023-02-11T20:06:01.078Z,49.0
2023-02-11T20:11:01.056Z,50.0
2023-02-11T20:21:01.224Z,49.7
2023-02-11T20:26:01.055Z,48.8
2023-02-11T20:31:01.160Z,47.8
2023-02-11T20:36:01.123Z,46.8
2023-02-11T20:41:01.180Z,47.0
2023-02-11T20:46:01.141Z,47.2
2023-02-11T20:51:01.141Z,48.3
2023-02-11T20:56:01.066Z,49.4
2023-02-11T21:01:01.089Z,49.3
2023-02-11T21:06:01.074Z,48.6
2023-02-11T21:11:01.063Z,47.7
2023-02-11T21:16:01.115Z,48.8
2023-02-11T21:21:01.516Z,49.4
2023-02-11T21:26:01.133Z,49.5
2023-02-11T21:31:01.151Z,49.4
2023-02-11T21:36:01.073Z,50.8
2023-02-11T21:41:01.078Z,50.0
2023-02-11T21:46:01.067Z,49.4
2023-02-11T21:51:01.075Z,48.4
2023-02-11T21:56:01.057Z,49.4
2023-02-11T22:01:01.141Z,50.9
2023-02-11T22:06:01.567Z,53.0
2023-02-11T22:11:01.060Z,54.5
2023-02-11T22:16:01.092Z,55.8
2023-02-11T22:21:01.507Z,56.0
2023-02-11T22:26:01.066Z,54.2
2023-02-11T22:31:01.881Z,53.9
2023-02-11T22:36:01.205Z,54.0
2023-02-11T22:41:01.089Z,53.7
2023-02-11T22:46:01.104Z,52.7
2023-02-11T22:51:01.083Z,52.8
2023-02-11T22:56:01.144Z,52.0
2023-02-11T23:01:01.117Z,51.7
2023-02-11T23:06:01.077Z,50.7
2023-02-11T23:11:03.131Z,51.8
2023-02-11T23:16:01.063Z,52.3
2023-02-11T23:21:01.586Z,52.8
2023-02-11T23:31:01.154Z,55.0
2023-02-11T23:36:01.073Z,55.8
2023-02-11T23:41:01.146Z,56.5
2023-02-11T23:46:01.097Z,57.1
2023-02-11T23:51:01.068Z,58.4
2023-02-11T23:56:01.061Z,59.9
